createdAt,value
2022-10-09T00:01:29.894Z,100853.66
2022-10-09T00:04:32.822Z,100853.44
2022-10-09T00:07:35.455Z,100858.78
2022-10-09T00:10:45.981Z,100861.13
2022-10-09T00:13:49.940Z,100848.19
2022-10-09T00:16:54.824Z,100852.28
2022-10-09T00:19:57.417Z,100852.28
2022-10-09T00:23:00.408Z,100851.47
2022-10-09T00:26:02.968Z,100850.94
2022-10-09T00:29:05.894Z,100850.16
2022-10-09T00:32:08.515Z,100855.59
2022-10-09T00:35:12.493Z,100852.19
2022-10-09T00:38:15.249Z,100854.78
2022-10-09T00:41:22.771Z,100855.16
2022-10-09T00:44:49.126Z,100859.28
2022-10-09T00:47:57.606Z,100859.19
2022-10-09T00:51:02.054Z,100865.75
2022-10-09T00:54:11.870Z,100848.66
2022-10-09T00:57:14.779Z,100847.66
2022-10-09T01:00:18.248Z,100836.94
2022-10-09T01:03:20.908Z,100848.56
2022-10-09T01:06:54.829Z,100850.78
2022-10-09T01:10:05.983Z,100839.19
2022-10-09T01:13:45.317Z,100839.53
2022-10-09T01:16:56.998Z,100841.34
2022-10-09T01:20:19.666Z,100834.09
2022-10-09T01:23:43.816Z,100837.47
2022-10-09T01:26:59.053Z,100844.53
2022-10-09T01:30:09.706Z,100849.22
2022-10-09T01:33:13.560Z,100839.34
2022-10-09T01:36:19.051Z,100850.00
2022-10-09T01:39:24.096Z,100856.72
2022-10-09T01:42:29.490Z,100870.59
2022-10-09T01:45:43.814Z,100869.78
2022-10-09T01:49:20.984Z,100864.75
2022-10-09T01:52:45.426Z,100869.22
2022-10-09T01:56:00.127Z,100865.84
2022-10-09T01:59:15.800Z,100872.28
2022-10-09T02:02:21.120Z,100873.78
2022-10-09T02:05:28.270Z,100870.75
2022-10-09T02:08:33.429Z,100885.25
2022-10-09T02:11:39.734Z,100893.22
2022-10-09T02:14:42.386Z,100901.28
2022-10-09T02:17:49.744Z,100898.50
2022-10-09T02:20:56.917Z,100896.44
2022-10-09T02:24:02.229Z,100886.75
2022-10-09T02:27:05.572Z,100887.06
2022-10-09T02:30:10.043Z,100890.34
2022-10-09T02:33:13.803Z,100896.62
2022-10-09T02:36:16.675Z,100896.28
2022-10-09T02:39:20.777Z,100903.50
2022-10-09T02:42:26.131Z,100912.28
2022-10-09T02:45:28.899Z,100912.13
2022-10-09T02:48:31.963Z,100914.75
2022-10-09T02:51:34.887Z,100908.22
2022-10-09T02:54:37.955Z,100897.56
2022-10-09T02:57:40.935Z,100900.75
2022-10-09T03:00:43.894Z,100916.16
2022-10-09T03:03:46.773Z,100923.72
2022-10-09T03:06:49.694Z,100943.38
2022-10-09T03:09:52.848Z,100951.09
2022-10-09T03:12:56.140Z,100937.81
2022-10-09T03:16:09.720Z,100960.31
2022-10-09T03:19:13.279Z,100935.31
2022-10-09T03:22:15.850Z,100922.91
2022-10-09T03:25:18.912Z,100935.44
2022-10-09T03:28:22.628Z,100925.59
2022-10-09T03:31:50.488Z,100929.22
2022-10-09T03:34:49.603Z,100928.22
2022-10-09T03:37:52.614Z,100936.41
2022-10-09T03:40:55.421Z,100926.69
2022-10-09T03:43:58.306Z,100934.53
2022-10-09T03:47:00.952Z,100934.66
2022-10-09T03:50:04.097Z,100934.88
2022-10-09T03:53:08.357Z,100936.91
2022-10-09T03:56:11.505Z,100943.72
2022-10-09T03:59:14.258Z,100955.06
2022-10-09T04:02:17.236Z,100957.06
2022-10-09T04:05:20.572Z,100956.06
2022-10-09T04:08:23.292Z,100967.19
2022-10-09T04:11:26.272Z,100977.22
2022-10-09T04:14:31.776Z,100970.97
2022-10-09T04:17:34.871Z,100970.56
2022-10-09T04:20:37.508Z,100960.19
2022-10-09T04:23:40.704Z,100982.22
2022-10-09T04:26:43.946Z,100971.91
2022-10-09T04:29:48.118Z,100963.94
2022-10-09T04:32:51.016Z,100978.97
2022-10-09T04:35:55.540Z,100980.41
2022-10-09T04:38:58.294Z,100990.47
2022-10-09T04:42:01.285Z,100986.94
2022-10-09T04:45:04.673Z,100985.34
2022-10-09T04:48:07.597Z,100997.84
2022-10-09T04:51:12.484Z,100997.06
2022-10-09T04:54:15.483Z,100998.06
2022-10-09T04:57:18.144Z,100992.06
2022-10-09T05:00:21.097Z,100986.28
2022-10-09T05:03:24.798Z,100985.75
2022-10-09T05:06:27.755Z,100987.75
2022-10-09T05:09:30.332Z,100999.94
2022-10-09T05:12:34.443Z,101001.94
2022-10-09T05:15:37.970Z,101008.53
2022-10-09T05:18:49.649Z,101013.56
2022-10-09T05:21:52.283Z,101011.22
2022-10-09T05:24:55.167Z,101015.91
2022-10-09T05:28:00.522Z,101018.78
2022-10-09T05:31:05.034Z,101027.09
2022-10-09T05:34:08.867Z,101033.87
2022-10-09T05:37:11.814Z,101040.25
2022-10-09T05:40:14.415Z,101038.13
2022-10-09T05:43:17.360Z,101040.50
2022-10-09T05:46:21.271Z,101045.00
2022-10-09T05:49:24.222Z,101049.22
2022-10-09T05:52:26.807Z,101054.50
2022-10-09T05:55:29.719Z,101052.09
2022-10-09T05:58:32.313Z,101055.03
2022-10-09T06:01:38.660Z,101061.50
2022-10-09T06:04:41.721Z,101061.06
2022-10-09T06:07:46.840Z,101065.97
2022-10-09T06:10:49.811Z,101071.72
2022-10-09T06:13:52.444Z,101076.12
2022-10-09T06:16:55.523Z,101078.25
2022-10-09T06:19:58.062Z,101079.06
2022-10-09T06:23:01.009Z,101091.97
2022-10-09T06:26:07.799Z,101088.53
2022-10-09T06:29:10.828Z,101089.06
2022-10-09T06:32:13.402Z,101087.59
2022-10-09T06:35:16.328Z,101090.16
2022-10-09T06:38:18.912Z,101084.44
2022-10-09T06:41:24.555Z,101097.19
2022-10-09T06:44:27.221Z,101096.34
2022-10-09T06:47:30.157Z,101100.91
2022-10-09T06:50:35.869Z,101100.22
2022-10-09T06:53:50.263Z,101095.84
2022-10-09T06:56:54.635Z,101098.91
2022-10-09T06:59:57.606Z,101106.81
2022-10-09T07:03:00.291Z,101103.78
2022-10-09T07:06:23.873Z,101107.91
2022-10-09T07:09:26.600Z,101106.53
2022-10-09T07:12:31.600Z,101112.00
2022-10-09T07:15:34.346Z,101116.09
2022-10-09T07:18:37.700Z,101121.94
2022-10-09T07:21:44.033Z,101119.13
2022-10-09T07:24:47.862Z,101123.09
2022-10-09T07:27:50.499Z,101119.97
2022-10-09T07:30:54.221Z,101118.47
2022-10-09T07:33:57.393Z,101117.09
2022-10-09T07:37:00.352Z,101130.31
2022-10-09T07:40:03.317Z,101133.22
2022-10-09T07:43:07.337Z,101128.50
2022-10-09T07:46:15.340Z,101120.28
2022-10-09T07:49:19.992Z,101129.97
2022-10-09T07:52:22.691Z,101137.38
2022-10-09T07:55:25.684Z,101145.50
2022-10-09T07:58:29.427Z,101139.22
2022-10-09T08:01:36.025Z,101130.94
2022-10-09T08:04:38.980Z,101141.94
2022-10-09T08:07:41.603Z,101129.66
2022-10-09T08:10:44.465Z,101132.66
2022-10-09T08:13:49.002Z,101141.28
2022-10-09T08:16:51.880Z,101134.78
2022-10-09T08:19:54.666Z,101129.78
2022-10-09T08:22:57.779Z,101139.41
2022-10-09T08:26:00.851Z,101134.84
2022-10-09T08:29:05.861Z,101132.84
2022-10-09T08:32:08.430Z,101140.03
2022-10-09T08:35:12.968Z,101146.88
2022-10-09T08:38:37.529Z,101135.34
2022-10-09T08:41:55.194Z,101115.94
2022-10-09T08:44:57.813Z,101128.50
2022-10-09T08:48:05.988Z,101127.03
2022-10-09T08:51:18.818Z,101128.13
2022-10-09T08:54:35.982Z,101126.50
2022-10-09T08:57:39.956Z,101121.22
2022-10-09T09:00:55.212Z,101114.81
2022-10-09T09:04:30.354Z,101135.53
2022-10-09T09:08:00.914Z,101128.25
2022-10-09T09:11:23.705Z,101134.03
2022-10-09T09:14:32.833Z,101131.09
2022-10-09T09:17:57.412Z,101138.44
2022-10-09T09:21:16.068Z,101136.34
2022-10-09T09:24:21.370Z,101135.84
2022-10-09T09:27:36.933Z,101134.38
2022-10-09T09:30:50.811Z,101141.91
2022-10-09T09:34:05.770Z,101129.25
2022-10-09T09:37:11.464Z,101143.28
2022-10-09T09:40:36.802Z,101140.28
2022-10-09T09:43:39.019Z,101140.16
2022-10-09T09:46:42.508Z,101139.94
2022-10-09T09:49:59.591Z,101138.97
2022-10-09T09:53:07.907Z,101140.31
2022-10-09T09:56:11.370Z,101149.31
2022-10-09T09:59:41.130Z,101149.69
2022-10-09T10:02:46.486Z,101145.75
2022-10-09T10:05:50.142Z,101144.00
2022-10-09T10:09:06.475Z,101137.03
2022-10-09T10:12:18.039Z,101142.69
2022-10-09T10:15:23.568Z,101154.34
2022-10-09T10:18:28.950Z,101144.22
2022-10-09T10:21:42.066Z,101142.22
2022-10-09T10:24:48.650Z,101131.28
2022-10-09T10:27:58.581Z,101141.97
2022-10-09T10:31:05.242Z,101137.16
2022-10-09T10:34:17.891Z,101139.16
2022-10-09T10:37:29.715Z,101139.00
2022-10-09T10:40:53.016Z,101141.16
2022-10-09T10:44:07.242Z,101142.91
2022-10-09T10:47:24.491Z,101137.12
2022-10-09T10:50:37.340Z,101150.16
2022-10-09T10:53:55.351Z,101128.75
2022-10-09T10:57:16.984Z,101118.47
2022-10-09T11:00:19.862Z,101121.13
2022-10-09T11:04:19.401Z,101129.56
2022-10-09T11:07:31.718Z,101130.97
2022-10-09T11:10:37.346Z,101122.06
2022-10-09T11:13:56.318Z,101122.75
2022-10-09T11:17:17.232Z,101126.41
2022-10-09T11:20:28.928Z,101124.03
2022-10-09T11:24:09.392Z,101114.13
2022-10-09T11:27:34.900Z,101107.50
2022-10-09T11:30:43.118Z,101099.00
2022-10-09T11:34:07.453Z,101104.91
2022-10-09T11:37:20.315Z,101102.84
2022-10-09T11:40:43.007Z,101097.06
2022-10-09T11:43:51.835Z,101085.97
2022-10-09T11:47:16.872Z,101091.94
2022-10-09T11:50:50.564Z,101090.50
2022-10-09T11:53:53.977Z,101087.94
2022-10-09T11:57:06.008Z,101080.69
2022-10-09T12:00:11.011Z,101080.00
2022-10-09T12:03:30.149Z,101074.06
2022-10-09T12:06:45.163Z,101074.34
2022-10-09T12:09:49.464Z,101065.50
2022-10-09T12:13:04.683Z,101065.50
2022-10-09T12:16:10.936Z,101057.37
2022-10-09T12:19:21.980Z,101063.03
2022-10-09T12:22:36.123Z,101059.75
2022-10-09T12:25:43.538Z,101047.19
2022-10-09T12:28:46.461Z,101048.62
2022-10-09T12:31:52.992Z,101041.25
2022-10-09T12:34:56.940Z,101052.25
2022-10-09T12:37:59.648Z,101046.28
2022-10-09T12:41:10.824Z,101042.25
2022-10-09T12:44:25.784Z,101033.66
2022-10-09T12:47:30.078Z,101031.03
2022-10-09T12:50:35.253Z,101028.22
2022-10-09T12:53:47.445Z,101026.25
2022-10-09T12:56:50.272Z,101037.59
2022-10-09T12:59:54.740Z,101033.56
2022-10-09T13:02:57.482Z,101035.78
2022-10-09T13:06:04.221Z,101041.75
2022-10-09T13:09:20.602Z,101029.78
2022-10-09T13:12:26.905Z,101024.84
2022-10-09T13:15:37.386Z,101022.34
2022-10-09T13:18:40.449Z,101023.41
2022-10-09T13:21:43.062Z,101013.75
2022-10-09T13:24:48.088Z,101003.84
2022-10-09T13:27:50.994Z,101020.00
2022-10-09T13:30:54.055Z,101015.91
2022-10-09T13:33:56.827Z,101030.00
2022-10-09T13:36:59.681Z,101017.06
2022-10-09T13:40:02.429Z,101016.37
2022-10-09T13:43:06.019Z,101010.78
2022-10-09T13:46:09.187Z,101014.38
2022-10-09T13:49:12.194Z,101000.31
2022-10-09T13:52:15.061Z,101003.59
2022-10-09T13:55:18.091Z,100999.87
2022-10-09T13:58:21.872Z,101001.88
2022-10-09T14:01:24.935Z,101004.00
2022-10-09T14:04:28.634Z,101010.34
2022-10-09T14:07:31.257Z,101007.34
2022-10-09T14:10:34.374Z,101009.06
2022-10-09T14:13:37.060Z,101002.31
2022-10-09T14:16:40.060Z,101005.94
2022-10-09T14:19:42.636Z,101001.62
2022-10-09T14:22:45.843Z,101003.69
2022-10-09T14:25:48.543Z,101001.31
2022-10-09T14:28:52.586Z,100993.81
2022-10-09T14:31:55.244Z,100997.09
2022-10-09T14:34:58.155Z,100997.53
2022-10-09T14:38:00.730Z,101006.00
2022-10-09T14:41:03.883Z,100999.19
2022-10-09T14:44:07.397Z,101000.81
2022-10-09T14:47:10.483Z,100998.03
2022-10-09T14:50:13.106Z,101006.87
2022-10-09T14:53:16.250Z,101004.91
2022-10-09T14:56:21.327Z,101011.72
2022-10-09T14:59:24.829Z,101010.16
2022-10-09T15:02:27.388Z,101009.38
2022-10-09T15:05:30.884Z,101008.97
2022-10-09T15:08:35.184Z,101007.78
2022-10-09T15:11:39.652Z,101001.34
2022-10-09T15:14:42.195Z,101006.16
2022-10-09T15:17:46.824Z,101007.38
2022-10-09T15:20:49.581Z,101004.53
2022-10-09T15:23:56.814Z,101005.72
2022-10-09T15:26:59.597Z,101005.72
2022-10-09T15:30:02.760Z,101011.34
2022-10-09T15:33:05.403Z,101004.47
2022-10-09T15:36:10.768Z,101012.87
2022-10-09T15:39:14.421Z,101014.47
2022-10-09T15:42:17.401Z,101009.63
2022-10-09T15:45:20.030Z,101015.97
2022-10-09T15:48:24.913Z,101023.94
2022-10-09T15:51:30.440Z,101015.03
2022-10-09T15:54:33.301Z,101015.34
2022-10-09T15:57:35.927Z,101007.28
2022-10-09T16:00:41.243Z,101010.34
2022-10-09T16:03:46.012Z,101015.03
2022-10-09T16:06:48.571Z,101009.66
2022-10-09T16:09:51.741Z,101027.41
2022-10-09T16:12:54.305Z,101026.75
2022-10-09T16:15:57.345Z,101023.84
2022-10-09T16:19:02.218Z,101028.44
2022-10-09T16:22:06.147Z,101025.38
2022-10-09T16:25:11.586Z,101030.37
2022-10-09T16:28:14.955Z,101031.62
2022-10-09T16:31:30.524Z,101040.63
2022-10-09T16:34:33.434Z,101039.00
2022-10-09T16:37:36.125Z,101040.81
2022-10-09T16:41:01.298Z,101046.59
2022-10-09T16:44:06.499Z,101050.13
2022-10-09T16:47:09.938Z,101046.97
2022-10-09T16:50:14.322Z,101059.47
2022-10-09T16:53:17.187Z,101059.81
2022-10-09T16:56:23.193Z,101066.38
2022-10-09T16:59:26.179Z,101066.16
2022-10-09T17:02:29.062Z,101066.00
2022-10-09T17:05:32.027Z,101065.81
2022-10-09T17:08:34.930Z,101071.37
2022-10-09T17:11:40.261Z,101073.47
2022-10-09T17:14:44.253Z,101075.13
2022-10-09T17:17:47.878Z,101071.50
2022-10-09T17:20:50.723Z,101077.34
2022-10-09T17:23:59.404Z,101078.22
2022-10-09T17:27:02.043Z,101081.59
2022-10-09T17:30:07.922Z,101081.19
2022-10-09T17:33:10.692Z,101083.06
2022-10-09T17:36:19.065Z,101083.66
2022-10-09T17:39:21.757Z,101082.34
2022-10-09T17:42:25.003Z,101083.69
2022-10-09T17:45:28.079Z,101092.44
2022-10-09T17:48:36.117Z,101088.97
2022-10-09T17:51:41.706Z,101085.06
2022-10-09T17:54:44.682Z,101090.09
2022-10-09T17:57:47.409Z,101089.59
2022-10-09T18:00:52.815Z,101099.84
2022-10-09T18:03:56.252Z,101105.88
2022-10-09T18:07:00.165Z,101105.16
2022-10-09T18:10:07.233Z,101107.53
2022-10-09T18:13:11.511Z,101106.84
2022-10-09T18:16:18.187Z,101097.44
2022-10-09T18:19:22.127Z,101100.16
2022-10-09T18:22:25.304Z,101109.53
2022-10-09T18:25:27.874Z,101110.16
2022-10-09T18:28:31.035Z,101112.19
2022-10-09T18:31:33.900Z,101112.47
2022-10-09T18:34:39.265Z,101102.50
2022-10-09T18:37:42.570Z,101111.34
2022-10-09T18:40:46.040Z,101115.78
2022-10-09T18:43:56.841Z,101117.22
2022-10-09T18:47:00.742Z,101114.44
2022-10-09T18:50:09.858Z,101115.69
2022-10-09T18:53:13.351Z,101114.53
2022-10-09T18:56:19.454Z,101116.97
2022-10-09T18:59:23.502Z,101127.75
2022-10-09T19:02:27.654Z,101121.53
2022-10-09T19:08:34.672Z,101133.38
2022-10-09T19:11:38.917Z,101138.44
2022-10-09T19:14:42.589Z,101145.41
2022-10-09T19:17:45.814Z,101132.94
2022-10-09T19:20:49.187Z,101137.12
2022-10-09T19:24:12.050Z,101146.25
2022-10-09T19:27:15.231Z,101152.22
2022-10-09T19:30:17.943Z,101155.47
2022-10-09T19:33:20.883Z,101153.13
2022-10-09T19:36:24.475Z,101166.22
2022-10-09T19:39:28.111Z,101169.97
2022-10-09T19:42:30.639Z,101166.34
2022-10-09T19:45:33.620Z,101167.50
2022-10-09T19:48:36.990Z,101163.00
2022-10-09T19:51:42.555Z,101155.81
2022-10-09T19:54:45.148Z,101165.97
2022-10-09T19:57:48.535Z,101165.97
2022-10-09T20:00:51.468Z,101157.75
2022-10-09T20:04:01.616Z,101157.66
2022-10-09T20:07:06.087Z,101159.50
2022-10-09T20:10:12.022Z,101158.19
2022-10-09T20:13:14.777Z,101166.91
2022-10-09T20:16:18.765Z,101168.06
2022-10-09T20:19:21.415Z,101165.31
2022-10-09T20:22:24.578Z,101170.97
2022-10-09T20:25:27.835Z,101157.22
2022-10-09T20:28:37.540Z,101164.88
2022-10-09T20:31:40.253Z,101165.81
2022-10-09T20:34:44.408Z,101157.16
2022-10-09T20:37:47.056Z,101153.31
2022-10-09T20:40:50.108Z,101166.59
2022-10-09T20:43:53.769Z,101164.22
2022-10-09T20:46:57.092Z,101170.41
2022-10-09T20:50:00.765Z,101155.28
2022-10-09T20:53:04.570Z,101159.44
2022-10-09T20:56:11.221Z,101166.34
2022-10-09T20:59:14.998Z,101170.72
2022-10-09T21:02:17.835Z,101173.28
2022-10-09T21:05:20.896Z,101172.00
2022-10-09T21:08:23.497Z,101174.19
2022-10-09T21:11:26.604Z,101174.19
2022-10-09T21:14:29.328Z,101166.13
2022-10-09T21:17:32.507Z,101169.13
2022-10-09T21:20:42.652Z,101169.84
2022-10-09T21:23:46.143Z,101173.31
2022-10-09T21:26:48.793Z,101172.97
2022-10-09T21:29:51.732Z,101166.47
2022-10-09T21:32:54.829Z,101178.16
2022-10-09T21:35:57.834Z,101176.88
2022-10-09T21:39:03.252Z,101181.25
2022-10-09T21:42:07.665Z,101177.22
2022-10-09T21:45:10.899Z,101167.41
2022-10-09T21:48:16.774Z,101177.22
2022-10-09T21:51:21.870Z,101169.81
2022-10-09T21:54:24.943Z,101174.56
2022-10-09T21:57:28.988Z,101168.19
2022-10-09T22:00:31.907Z,101162.53
2022-10-09T22:03:37.495Z,101166.91
2022-10-09T22:06:41.291Z,101162.34
2022-10-09T22:09:45.629Z,101167.53
2022-10-09T22:12:48.538Z,101168.44
2022-10-09T22:15:52.149Z,101165.25
2022-10-09T22:18:54.749Z,101171.56
2022-10-09T22:21:57.645Z,101168.66
2022-10-09T22:25:00.588Z,101164.50
2022-10-09T22:28:04.643Z,101174.31
2022-10-09T22:31:11.832Z,101166.22
2022-10-09T22:34:15.311Z,101168.28
2022-10-09T22:37:18.250Z,101165.06
2022-10-09T22:40:21.155Z,101165.84
2022-10-09T22:43:23.803Z,101169.91
2022-10-09T22:46:28.929Z,101165.97
2022-10-09T22:49:31.546Z,101164.34
2022-10-09T22:52:34.433Z,101158.03
2022-10-09T22:55:40.967Z,101162.06
2022-10-09T22:58:44.647Z,101166.78
2022-10-09T23:01:54.142Z,101169.34
2022-10-09T23:04:57.327Z,101170.13
2022-10-09T23:07:59.934Z,101177.53
2022-10-09T23:11:05.208Z,101174.00
2022-10-09T23:14:10.818Z,101177.00
2022-10-09T23:17:13.902Z,101178.19
2022-10-09T23:20:16.484Z,101186.94
2022-10-09T23:23:19.419Z,101186.84
2022-10-09T23:26:31.235Z,101183.22
2022-10-09T23:29:34.213Z,101181.78
2022-10-09T23:32:36.895Z,101181.12
2022-10-09T23:35:41.308Z,101177.03
2022-10-09T23:38:44.505Z,101181.56
2022-10-09T23:41:47.328Z,101179.97
2022-10-09T23:44:49.965Z,101179.72
2022-10-09T23:47:53.136Z,101178.03
2022-10-09T23:50:56.761Z,101170.09
2022-10-09T23:54:00.362Z,101174.44
2022-10-09T23:57:03.053Z,101181.94
